sensor_id;sensor_type;location;lat;lon;timestamp;pressure;altitude;pressure_sealevel;temperature;humidity
77662;BME280;67292;52.136;5.424;2023-02-11T00:00:20;103571.63;;;6.87;90.85
77662;BME280;67292;52.136;5.424;2023-02-11T00:02:47;103577.88;;;6.89;90.56
77662;BME280;67292;52.136;5.424;2023-02-11T00:05:14;103582.31;;;6.90;90.45
77662;BME280;67292;52.136;5.424;2023-02-11T00:07:40;103566.47;;;6.92;90.38
77662;BME280;67292;52.136;5.424;2023-02-11T00:10:07;103559.38;;;6.91;90.45
77662;BME280;67292;52.136;5.424;2023-02-11T00:12:35;103565.50;;;6.88;90.70
77662;BME280;67292;52.136;5.424;2023-02-11T00:15:02;103569.97;;;6.91;90.37
77662;BME280;67292;52.136;5.424;2023-02-11T00:17:28;103569.09;;;6.90;90.54
77662;BME280;67292;52.136;5.424;2023-02-11T00:19:55;103566.38;;;6.89;90.25
77662;BME280;67292;52.136;5.424;2023-02-11T00:22:21;103568.22;;;6.91;90.56
77662;BME280;67292;52.136;5.424;2023-02-11T00:24:48;103559.38;;;6.91;90.43
77662;BME280;67292;52.136;5.424;2023-02-11T00:27:15;103568.22;;;6.91;90.77
77662;BME280;67292;52.136;5.424;2023-02-11T00:29:42;103569.94;;;6.89;90.59
77662;BME280;67292;52.136;5.424;2023-02-11T00:32:09;103569.94;;;6.89;90.47
77662;BME280;67292;52.136;5.424;2023-02-11T00:34:36;103564.59;;;6.88;90.97
77662;BME280;67292;52.136;5.424;2023-02-11T00:37:03;103570.75;;;6.87;90.46
77662;BME280;67292;52.136;5.424;2023-02-11T00:39:31;103565.41;;;6.85;90.61
77662;BME280;67292;52.136;5.424;2023-02-11T00:41:58;103571.63;;;6.87;90.66
77662;BME280;67292;52.136;5.424;2023-02-11T00:44:24;103567.28;;;6.89;90.27
77662;BME280;67292;52.136;5.424;2023-02-11T00:46:51;103574.34;;;6.89;90.56
77662;BME280;67292;52.136;5.424;2023-02-11T00:49:17;103576.94;;;6.87;90.73
77662;BME280;67292;52.136;5.424;2023-02-11T00:51:44;103575.13;;;6.86;90.55
77662;BME280;67292;52.136;5.424;2023-02-11T00:54:11;103574.25;;;6.86;90.49
77662;BME280;67292;52.136;5.424;2023-02-11T00:56:37;103571.59;;;6.86;90.39
77662;BME280;67292;52.136;5.424;2023-02-11T00:59:04;103568.94;;;6.86;90.82
77662;BME280;67292;52.136;5.424;2023-02-11T01:01:30;103558.31;;;6.84;90.63
77662;BME280;67292;52.136;5.424;2023-02-11T01:03:57;103560.97;;;6.84;90.56
77662;BME280;67292;52.136;5.424;2023-02-11T01:06:24;103551.22;;;6.83;90.89
77662;BME280;67292;52.136;5.424;2023-02-11T01:08:50;103548.59;;;6.83;91.32
77662;BME280;67292;52.136;5.424;2023-02-11T01:11:19;103539.69;;;6.80;90.76
77662;BME280;67292;52.136;5.424;2023-02-11T01:13:47;103537.91;;;6.79;90.50
77662;BME280;67292;52.136;5.424;2023-02-11T01:16:15;103548.41;;;6.76;91.27
77662;BME280;67292;52.136;5.424;2023-02-11T01:18:42;103552.75;;;6.74;90.22
77662;BME280;67292;52.136;5.424;2023-02-11T01:21:10;103538.63;;;6.73;90.74
77662;BME280;67292;52.136;5.424;2023-02-11T01:23:37;103523.56;;;6.69;91.09
77662;BME280;67292;52.136;5.424;2023-02-11T01:26:04;103514.69;;;6.67;91.00
77662;BME280;67292;52.136;5.424;2023-02-11T01:28:31;103520.78;;;6.65;90.77
77662;BME280;67292;52.136;5.424;2023-02-11T01:30:59;103525.94;;;6.60;91.34
77662;BME280;67292;52.136;5.424;2023-02-11T01:33:26;103528.59;;;6.60;91.22
77662;BME280;67292;52.136;5.424;2023-02-11T01:35:53;103543.50;;;6.56;91.05
77662;BME280;67292;52.136;5.424;2023-02-11T01:38:25;103548.78;;;6.56;91.28
77662;BME280;67292;52.136;5.424;2023-02-11T01:41:02;103556.69;;;6.55;91.17
77662;BME280;67292;52.136;5.424;2023-02-11T01:43:39;103564.63;;;6.55;91.03
77662;BME280;67292;52.136;5.424;2023-02-11T01:49:07;103554.94;;;6.55;91.46
77662;BME280;67292;52.136;5.424;2023-02-11T01:51:47;103549.66;;;6.55;91.41
77662;BME280;67292;52.136;5.424;2023-02-11T01:54:21;103552.34;;;6.57;91.34
77662;BME280;67292;52.136;5.424;2023-02-11T01:57:12;103546.16;;;6.56;91.37
77662;BME280;67292;52.136;5.424;2023-02-11T02:00:12;103557.59;;;6.55;91.42
77662;BME280;67292;52.136;5.424;2023-02-11T02:03:05;103563.69;;;6.53;91.43
77662;BME280;67292;52.136;5.424;2023-02-11T02:08:56;103565.34;;;6.49;91.37
77662;BME280;67292;52.136;5.424;2023-02-11T02:11:27;103564.47;;;6.50;91.61
77662;BME280;67292;52.136;5.424;2023-02-11T02:13:53;103560.94;;;6.50;91.25
77662;BME280;67292;52.136;5.424;2023-02-11T02:16:25;103558.28;;;6.50;91.14
77662;BME280;67292;52.136;5.424;2023-02-11T02:19:19;103551.19;;;6.47;91.20
77662;BME280;67292;52.136;5.424;2023-02-11T02:25:18;103547.63;;;6.45;91.52
77662;BME280;67292;52.136;5.424;2023-02-11T02:30:52;103544.88;;;6.42;91.45
77662;BME280;67292;52.136;5.424;2023-02-11T02:33:36;103545.63;;;6.37;91.58
77662;BME280;67292;52.136;5.424;2023-02-11T02:36:17;103550.81;;;6.34;91.19
77662;BME280;67292;52.136;5.424;2023-02-11T02:39:03;103541.00;;;6.30;91.53
77662;BME280;67292;52.136;5.424;2023-02-11T02:41:33;103529.47;;;6.28;91.73
77662;BME280;67292;52.136;5.424;2023-02-11T02:44:01;103531.28;;;6.29;91.81
77662;BME280;67292;52.136;5.424;2023-02-11T02:46:30;103528.63;;;6.27;91.43
77662;BME280;67292;52.136;5.424;2023-02-11T02:48:58;103525.88;;;6.24;92.05
77662;BME280;67292;52.136;5.424;2023-02-11T02:51:57;103534.66;;;6.23;91.89
77662;BME280;67292;52.136;5.424;2023-02-11T02:55:04;103532.88;;;6.22;91.91
77662;BME280;67292;52.136;5.424;2023-02-11T03:00:24;103540.94;;;6.27;92.29
77662;BME280;67292;52.136;5.424;2023-02-11T03:03:28;103536.56;;;6.27;92.48
77662;BME280;67292;52.136;5.424;2023-02-11T03:06:19;103535.66;;;6.28;91.73
77662;BME280;67292;52.136;5.424;2023-02-11T03:08:58;103521.56;;;6.28;91.95
77662;BME280;67292;52.136;5.424;2023-02-11T03:11:27;103526.81;;;6.26;92.30
77662;BME280;67292;52.136;5.424;2023-02-11T03:13:55;103526.81;;;6.26;92.12
77662;BME280;67292;52.136;5.424;2023-02-11T03:16:27;103515.34;;;6.26;91.98
77662;BME280;67292;52.136;5.424;2023-02-11T03:19:16;103505.69;;;6.26;92.05
77662;BME280;67292;52.136;5.424;2023-02-11T03:21:45;103500.38;;;6.26;91.99
77662;BME280;67292;52.136;5.424;2023-02-11T03:24:23;103500.34;;;6.25;92.34
77662;BME280;67292;52.136;5.424;2023-02-11T03:26:57;103495.84;;;6.22;92.30
77662;BME280;67292;52.136;5.424;2023-02-11T03:29:35;103494.97;;;6.21;92.51
77662;BME280;67292;52.136;5.424;2023-02-11T03:32:22;103494.97;;;6.21;92.83
77662;BME280;67292;52.136;5.424;2023-02-11T03:35:10;103494.03;;;6.19;93.07
77662;BME280;67292;52.136;5.424;2023-02-11T03:37:49;103497.50;;;6.18;93.23
77662;BME280;67292;52.136;5.424;2023-02-11T03:40:27;103505.44;;;6.18;92.62
77662;BME280;67292;52.136;5.424;2023-02-11T03:43:06;103493.16;;;6.20;92.81
77662;BME280;67292;52.136;5.424;2023-02-11T03:45:36;103482.56;;;6.19;92.57
77662;BME280;67292;52.136;5.424;2023-02-11T03:48:24;103482.50;;;6.17;92.99
77662;BME280;67292;52.136;5.424;2023-02-11T03:50:53;103466.50;;;6.11;92.51
77662;BME280;67292;52.136;5.424;2023-02-11T03:53:21;103475.38;;;6.13;92.23
77662;BME280;67292;52.136;5.424;2023-02-11T03:55:51;103478.81;;;6.11;93.04
77662;BME280;67292;52.136;5.424;2023-02-11T03:58:19;103487.50;;;6.07;93.20
77662;BME280;67292;52.136;5.424;2023-02-11T04:00:46;103497.13;;;6.03;93.33
77662;BME280;67292;52.136;5.424;2023-02-11T04:03:13;103499.75;;;6.03;92.70
77662;BME280;67292;52.136;5.424;2023-02-11T04:05:39;103508.53;;;6.02;92.96
77662;BME280;67292;52.136;5.424;2023-02-11T04:08:06;103499.66;;;6.00;93.48
77662;BME280;67292;52.136;5.424;2023-02-11T04:10:33;103503.16;;;5.99;93.20
77662;BME280;67292;52.136;5.424;2023-02-11T04:13:00;103504.09;;;6.01;93.26
77662;BME280;67292;52.136;5.424;2023-02-11T04:15:27;103503.31;;;6.04;93.52
77662;BME280;67292;52.136;5.424;2023-02-11T04:17:53;103503.34;;;6.07;92.74
77662;BME280;67292;52.136;5.424;2023-02-11T04:20:20;103502.56;;;6.09;93.60
77662;BME280;67292;52.136;5.424;2023-02-11T04:22:46;103505.19;;;6.09;93.07
77662;BME280;67292;52.136;5.424;2023-02-11T04:25:13;103507.03;;;6.12;93.19
77662;BME280;67292;52.136;5.424;2023-02-11T04:27:40;103508.88;;;6.14;93.16
77662;BME280;67292;52.136;5.424;2023-02-11T04:30:07;103518.59;;;6.15;93.11
77662;BME280;67292;52.136;5.424;2023-02-11T04:32:34;103513.31;;;6.15;93.27
77662;BME280;67292;52.136;5.424;2023-02-11T04:35:00;103514.22;;;6.17;93.60
77662;BME280;67292;52.136;5.424;2023-02-11T04:37:28;103516.13;;;6.21;93.04
77662;BME280;67292;52.136;5.424;2023-02-11T04:39:54;103523.19;;;6.22;93.67
77662;BME280;67292;52.136;5.424;2023-02-11T04:42:21;103524.09;;;6.23;93.51
77662;BME280;67292;52.136;5.424;2023-02-11T04:44:47;103517.16;;;6.27;92.97
77662;BME280;67292;52.136;5.424;2023-02-11T04:47:14;103509.22;;;6.27;93.53
77662;BME280;67292;52.136;5.424;2023-02-11T04:49:41;103519.91;;;6.31;93.48
77662;BME280;67292;52.136;5.424;2023-02-11T04:52:07;103513.72;;;6.31;93.59
77662;BME280;67292;52.136;5.424;2023-02-11T04:54:34;103519.09;;;6.34;93.89
77662;BME280;67292;52.136;5.424;2023-02-11T04:57:01;103517.34;;;6.34;93.38
77662;BME280;67292;52.136;5.424;2023-02-11T04:59:28;103515.69;;;6.38;92.96
77662;BME280;67292;52.136;5.424;2023-02-11T05:01:54;103516.50;;;6.35;93.57
77662;BME280;67292;52.136;5.424;2023-02-11T05:04:22;103515.69;;;6.38;93.25
77662;BME280;67292;52.136;5.424;2023-02-11T05:06:49;103508.63;;;6.38;93.32
77662;BME280;67292;52.136;5.424;2023-02-11T05:09:15;103510.41;;;6.38;93.85
77662;BME280;67292;52.136;5.424;2023-02-11T05:11:43;103521.94;;;6.41;93.34
77662;BME280;67292;52.136;5.424;2023-02-11T05:14:09;103519.25;;;6.40;93.87
77662;BME280;67292;52.136;5.424;2023-02-11T05:16:36;103510.44;;;6.41;93.26
77662;BME280;67292;52.136;5.424;2023-02-11T05:19:03;103518.44;;;6.42;93.73
77662;BME280;67292;52.136;5.424;2023-02-11T05:21:30;103511.34;;;6.41;93.59
77662;BME280;67292;52.136;5.424;2023-02-11T05:23:56;103515.84;;;6.44;93.81
77662;BME280;67292;52.136;5.424;2023-02-11T05:26:24;103507.03;;;6.45;93.50
77662;BME280;67292;52.136;5.424;2023-02-11T05:28:51;103524.72;;;6.46;93.65
77662;BME280;67292;52.136;5.424;2023-02-11T05:31:17;103520.31;;;6.46;93.60
77662;BME280;67292;52.136;5.424;2023-02-11T05:33:44;103513.31;;;6.48;93.97
77662;BME280;67292;52.136;5.424;2023-02-11T05:36:12;103508.88;;;6.47;93.94
77662;BME280;67292;52.136;5.424;2023-02-11T05:38:39;103513.31;;;6.48;94.10
77662;BME280;67292;52.136;5.424;2023-02-11T05:41:08;103514.22;;;6.50;93.92
77662;BME280;67292;52.136;5.424;2023-02-11T05:43:35;103502.84;;;6.53;93.88
77662;BME280;67292;52.136;5.424;2023-02-11T05:46:02;103511.69;;;6.53;93.59
77662;BME280;67292;52.136;5.424;2023-02-11T05:48:30;103506.44;;;6.55;94.24
77662;BME280;67292;52.136;5.424;2023-02-11T05:50:57;103508.19;;;6.54;93.49
77662;BME280;67292;52.136;5.424;2023-02-11T05:53:24;103503.81;;;6.56;94.07
77662;BME280;67292;52.136;5.424;2023-02-11T05:55:50;103511.75;;;6.56;93.61
77662;BME280;67292;52.136;5.424;2023-02-11T05:58:17;103519.75;;;6.58;93.64
77662;BME280;67292;52.136;5.424;2023-02-11T06:00:44;103515.34;;;6.60;93.68
77662;BME280;67292;52.136;5.424;2023-02-11T06:03:11;103516.25;;;6.60;93.92
77662;BME280;67292;52.136;5.424;2023-02-11T06:05:37;103514.50;;;6.59;93.65
77662;BME280;67292;52.136;5.424;2023-02-11T06:08:04;103518.03;;;6.62;93.82
77662;BME280;67292;52.136;5.424;2023-02-11T06:10:31;103527.78;;;6.63;93.87
77662;BME280;67292;52.136;5.424;2023-02-11T06:12:57;103527.78;;;6.63;93.87
77662;BME280;67292;52.136;5.424;2023-02-11T06:15:24;103531.31;;;6.63;93.81
77662;BME280;67292;52.136;5.424;2023-02-11T06:17:51;103530.47;;;6.64;94.25
77662;BME280;67292;52.136;5.424;2023-02-11T06:20:18;103528.75;;;6.66;93.64
77662;BME280;67292;52.136;5.424;2023-02-11T06:22:45;103527.88;;;6.66;94.39
77662;BME280;67292;52.136;5.424;2023-02-11T06:25:12;103529.75;;;6.70;93.62
77662;BME280;67292;52.136;5.424;2023-02-11T06:27:38;103524.41;;;6.68;93.67
77662;BME280;67292;52.136;5.424;2023-02-11T06:30:08;103533.28;;;6.70;93.97
77662;BME280;67292;52.136;5.424;2023-02-11T06:32:35;103526.19;;;6.69;94.04
77662;BME280;67292;52.136;5.424;2023-02-11T06:35:10;103527.09;;;6.71;93.75
77662;BME280;67292;52.136;5.424;2023-02-11T06:37:39;103520.97;;;6.72;93.59
77662;BME280;67292;52.136;5.424;2023-02-11T06:40:06;103521.06;;;6.75;94.37
77662;BME280;67292;52.136;5.424;2023-02-11T06:42:33;103523.69;;;6.75;94.22
77662;BME280;67292;52.136;5.424;2023-02-11T06:45:02;103514.00;;;6.76;94.25
77662;BME280;67292;52.136;5.424;2023-02-11T06:47:31;103515.00;;;6.79;93.94
77662;BME280;67292;52.136;5.424;2023-02-11T06:49:57;103514.09;;;6.79;94.32
77662;BME280;67292;52.136;5.424;2023-02-11T06:52:24;103517.69;;;6.81;93.79
77662;BME280;67292;52.136;5.424;2023-02-11T06:54:51;103518.59;;;6.83;94.00
77662;BME280;67292;52.136;5.424;2023-02-11T06:57:17;103520.34;;;6.82;94.55
77662;BME280;67292;52.136;5.424;2023-02-11T06:59:44;103523.06;;;6.85;94.02
77662;BME280;67292;52.136;5.424;2023-02-11T07:02:11;103521.31;;;6.86;94.03
77662;BME280;67292;52.136;5.424;2023-02-11T07:04:40;103531.09;;;6.88;94.05
77662;BME280;67292;52.136;5.424;2023-02-11T07:07:07;103535.50;;;6.88;94.27
77662;BME280;67292;52.136;5.424;2023-02-11T07:09:33;103534.69;;;6.90;94.31
77662;BME280;67292;52.136;5.424;2023-02-11T07:12:00;103541.75;;;6.91;94.64
77662;BME280;67292;52.136;5.424;2023-02-11T07:14:27;103540.00;;;6.92;94.35
77662;BME280;67292;52.136;5.424;2023-02-11T07:16:53;103540.91;;;6.94;94.54
77662;BME280;67292;52.136;5.424;2023-02-11T07:19:20;103544.50;;;6.96;94.24
77662;BME280;67292;52.136;5.424;2023-02-11T07:21:46;103535.66;;;6.95;94.62
77662;BME280;67292;52.136;5.424;2023-02-11T07:24:14;103548.09;;;6.98;94.20
77662;BME280;67292;52.136;5.424;2023-02-11T07:26:41;103552.53;;;6.99;94.35
77662;BME280;67292;52.136;5.424;2023-02-11T07:29:07;103554.38;;;7.02;94.69
77662;BME280;67292;52.136;5.424;2023-02-11T07:31:34;103556.16;;;7.03;94.75
77662;BME280;67292;52.136;5.424;2023-02-11T07:34:01;103563.28;;;7.07;94.71
77662;BME280;67292;52.136;5.424;2023-02-11T07:36:29;103570.38;;;7.08;94.37
77662;BME280;67292;52.136;5.424;2023-02-11T07:38:57;103557.19;;;7.09;94.54
77662;BME280;67292;52.136;5.424;2023-02-11T07:41:25;103561.66;;;7.12;94.65
77662;BME280;67292;52.136;5.424;2023-02-11T07:43:52;103574.06;;;7.14;94.38
77662;BME280;67292;52.136;5.424;2023-02-11T07:46:21;103574.06;;;7.14;94.43
77662;BME280;67292;52.136;5.424;2023-02-11T07:48:50;103580.38;;;7.19;94.43
77662;BME280;67292;52.136;5.424;2023-02-11T07:51:20;103570.63;;;7.18;94.55
77662;BME280;67292;52.136;5.424;2023-02-11T07:53:47;103571.63;;;7.22;94.29
77662;BME280;67292;52.136;5.424;2023-02-11T07:56:16;103568.16;;;7.24;94.31
77662;BME280;67292;52.136;5.424;2023-02-11T07:58:43;103567.31;;;7.27;94.04
77662;BME280;67292;52.136;5.424;2023-02-11T08:01:13;103573.53;;;7.29;94.61
77662;BME280;67292;52.136;5.424;2023-02-11T08:03:40;103570.03;;;7.30;94.24
77662;BME280;67292;52.136;5.424;2023-02-11T08:06:13;103563.88;;;7.31;94.66
77662;BME280;67292;52.136;5.424;2023-02-11T08:08:41;103571.06;;;7.35;94.33
77662;BME280;67292;52.136;5.424;2023-02-11T08:11:10;103571.09;;;7.38;94.20
77662;BME280;67292;52.136;5.424;2023-02-11T08:13:38;103568.50;;;7.40;94.25
77662;BME280;67292;52.136;5.424;2023-02-11T08:16:06;103572.09;;;7.42;94.19
77662;BME280;67292;52.136;5.424;2023-02-11T08:18:33;103573.88;;;7.43;93.80
77662;BME280;67292;52.136;5.424;2023-02-11T08:21:08;103574.84;;;7.46;94.03
77662;BME280;67292;52.136;5.424;2023-02-11T08:23:36;103574.91;;;7.49;94.18
77662;BME280;67292;52.136;5.424;2023-02-11T08:26:06;103574.91;;;7.49;94.30
77662;BME280;67292;52.136;5.424;2023-02-11T08:28:38;103572.25;;;7.49;94.20
77662;BME280;67292;52.136;5.424;2023-02-11T08:31:07;103573.19;;;7.51;94.13
77662;BME280;67292;52.136;5.424;2023-02-11T08:33:34;103576.69;;;7.50;94.30
77662;BME280;67292;52.136;5.424;2023-02-11T08:36:07;103576.69;;;7.50;93.93
77662;BME280;67292;52.136;5.424;2023-02-11T08:38:34;103584.69;;;7.52;94.05
77662;BME280;67292;52.136;5.424;2023-02-11T08:41:00;103587.41;;;7.55;94.66
77662;BME280;67292;52.136;5.424;2023-02-11T08:43:27;103589.13;;;7.53;94.61
77662;BME280;67292;52.136;5.424;2023-02-11T08:45:54;103598.03;;;7.56;94.09
77662;BME280;67292;52.136;5.424;2023-02-11T08:48:21;103590.09;;;7.56;94.26
77662;BME280;67292;52.136;5.424;2023-02-11T08:50:47;103584.84;;;7.59;94.58
77662;BME280;67292;52.136;5.424;2023-02-11T08:53:14;103595.47;;;7.61;93.89
77662;BME280;67292;52.136;5.424;2023-02-11T08:55:47;103593.81;;;7.64;94.18
77662;BME280;67292;52.136;5.424;2023-02-11T08:58:14;103600.94;;;7.68;94.23
77662;BME280;67292;52.136;5.424;2023-02-11T09:00:45;103603.66;;;7.72;94.34
77662;BME280;67292;52.136;5.424;2023-02-11T09:03:13;103596.63;;;7.72;94.04
77662;BME280;67292;52.136;5.424;2023-02-11T09:05:45;103607.34;;;7.77;94.13
77662;BME280;67292;52.136;5.424;2023-02-11T09:08:13;103607.41;;;7.81;94.13
77662;BME280;67292;52.136;5.424;2023-02-11T09:10:40;103613.69;;;7.85;93.59
77662;BME280;67292;52.136;5.424;2023-02-11T09:13:07;103617.31;;;7.90;93.68
77662;BME280;67292;52.136;5.424;2023-02-11T09:15:34;103619.16;;;7.92;93.75
77662;BME280;67292;52.136;5.424;2023-02-11T09:18:02;103624.66;;;8.00;93.55
77662;BME280;67292;52.136;5.424;2023-02-11T09:20:29;103617.66;;;8.05;93.17
77662;BME280;67292;52.136;5.424;2023-02-11T09:22:57;103621.25;;;8.07;93.37
77662;BME280;67292;52.136;5.424;2023-02-11T09:25:24;103620.47;;;8.11;93.06
77662;BME280;67292;52.136;5.424;2023-02-11T09:27:51;103623.19;;;8.16;93.61
77662;BME280;67292;52.136;5.424;2023-02-11T09:30:19;103628.66;;;8.22;93.56
77662;BME280;67292;52.136;5.424;2023-02-11T09:32:46;103631.34;;;8.25;93.29
77662;BME280;67292;52.136;5.424;2023-02-11T09:35:13;103629.66;;;8.28;93.33
77662;BME280;67292;52.136;5.424;2023-02-11T09:37:39;103635.97;;;8.32;93.51
77662;BME280;67292;52.136;5.424;2023-02-11T09:40:06;103629.75;;;8.33;93.89
77662;BME280;67292;52.136;5.424;2023-02-11T09:42:48;103636.06;;;8.38;93.49
77662;BME280;67292;52.136;5.424;2023-02-11T09:45:19;103645.00;;;8.41;92.89
77662;BME280;67292;52.136;5.424;2023-02-11T09:48:00;103637.97;;;8.44;92.39
77662;BME280;67292;52.136;5.424;2023-02-11T09:50:35;103635.47;;;8.51;92.64
77662;BME280;67292;52.136;5.424;2023-02-11T09:53:14;103632.03;;;8.57;92.94
77662;BME280;67292;52.136;5.424;2023-02-11T09:55:46;103640.09;;;8.61;92.88
77662;BME280;67292;52.136;5.424;2023-02-11T09:58:19;103632.22;;;8.67;91.99
77662;BME280;67292;52.136;5.424;2023-02-11T10:12:38;103654.97;;;9.01;91.82
77662;BME280;67292;52.136;5.424;2023-02-11T10:15:27;103661.38;;;9.12;91.21
77662;BME280;67292;52.136;5.424;2023-02-11T10:24:09;103678.72;;;9.43;91.00
77662;BME280;67292;52.136;5.424;2023-02-11T10:26:38;103669.25;;;9.59;90.97
77662;BME280;67292;52.136;5.424;2023-02-11T10:31:45;103683.13;;;9.99;89.77
77662;BME280;67292;52.136;5.424;2023-02-11T10:34:14;103675.34;;;10.11;89.00
77662;BME280;67292;52.136;5.424;2023-02-11T10:36:42;103677.34;;;10.24;89.83
77662;BME280;67292;52.136;5.424;2023-02-11T10:39:22;103675.56;;;10.24;89.40
77662;BME280;67292;52.136;5.424;2023-02-11T10:41:54;103688.97;;;10.32;89.49
77662;BME280;67292;52.136;5.424;2023-02-11T10:44:31;103690.81;;;10.38;88.98
77662;BME280;67292;52.136;5.424;2023-02-11T10:47:05;103689.91;;;10.36;89.03
77662;BME280;67292;52.136;5.424;2023-02-11T10:49:40;103694.34;;;10.37;88.72
77662;BME280;67292;52.136;5.424;2023-02-11T10:57:42;103688.03;;;10.27;88.38
77662;BME280;67292;52.136;5.424;2023-02-11T11:00:36;103689.78;;;10.28;88.23
77662;BME280;67292;52.136;5.424;2023-02-11T11:03:18;103693.38;;;10.30;88.14
77662;BME280;67292;52.136;5.424;2023-02-11T11:05:57;103687.19;;;10.33;88.36
77662;BME280;67292;52.136;5.424;2023-02-11T11:08:46;103698.81;;;10.39;88.38
77662;BME280;67292;52.136;5.424;2023-02-11T11:11:22;103699.84;;;10.50;89.11
77662;BME280;67292;52.136;5.424;2023-02-11T11:16:22;103703.84;;;10.87;88.38
77662;BME280;67292;52.136;5.424;2023-02-11T11:18:53;103706.69;;;11.03;87.81
77662;BME280;67292;52.136;5.424;2023-02-11T11:21:45;103710.41;;;11.21;87.32
77662;BME280;67292;52.136;5.424;2023-02-11T11:24:17;103705.13;;;11.27;86.38
77662;BME280;67292;52.136;5.424;2023-02-11T11:26:52;103716.72;;;11.31;86.33
77662;BME280;67292;52.136;5.424;2023-02-11T11:32:27;103721.22;;;11.35;85.84
77662;BME280;67292;52.136;5.424;2023-02-11T11:34:59;103716.88;;;11.46;86.63
77662;BME280;67292;52.136;5.424;2023-02-11T11:37:36;103716.06;;;11.58;86.40
77662;BME280;67292;52.136;5.424;2023-02-11T11:40:08;103724.22;;;11.75;86.87
77662;BME280;67292;52.136;5.424;2023-02-11T11:42:37;103719.00;;;11.85;85.97
77662;BME280;67292;52.136;5.424;2023-02-11T11:50:31;103713.50;;;11.67;84.98
77662;BME280;67292;52.136;5.424;2023-02-11T11:55:55;103699.13;;;11.51;85.23
77662;BME280;67292;52.136;5.424;2023-02-11T11:58:28;103698.16;;;11.42;84.84
77662;BME280;67292;52.136;5.424;2023-02-11T12:06:52;103690.00;;;11.23;84.89
77662;BME280;67292;52.136;5.424;2023-02-11T12:09:29;103694.41;;;11.21;85.19
77662;BME280;67292;52.136;5.424;2023-02-11T12:12:20;103691.75;;;11.21;85.54
77662;BME280;67292;52.136;5.424;2023-02-11T12:17:32;103685.47;;;11.16;85.08
77662;BME280;67292;52.136;5.424;2023-02-11T12:20:23;103693.44;;;11.15;85.81
77662;BME280;67292;52.136;5.424;2023-02-11T12:28:37;103686.44;;;11.26;85.82
77662;BME280;67292;52.136;5.424;2023-02-11T12:34:35;103685.75;;;11.44;85.44
77662;BME280;67292;52.136;5.424;2023-02-11T12:45:37;103701.13;;;11.75;85.10
77662;BME280;67292;52.136;5.424;2023-02-11T12:48:20;103696.72;;;11.83;84.90
77662;BME280;67292;52.136;5.424;2023-02-11T12:51:06;103688.78;;;11.88;84.72
77662;BME280;67292;52.136;5.424;2023-02-11T12:56:25;103688.72;;;11.83;83.55
77662;BME280;67292;52.136;5.424;2023-02-11T12:58:56;103691.41;;;11.85;85.27
77662;BME280;67292;52.136;5.424;2023-02-11T13:01:29;103686.94;;;11.81;83.35
77662;BME280;67292;52.136;5.424;2023-02-11T13:06:39;103680.75;;;11.85;84.06
77662;BME280;67292;52.136;5.424;2023-02-11T13:09:16;103682.47;;;11.81;83.49
77662;BME280;67292;52.136;5.424;2023-02-11T13:11:48;103684.31;;;11.85;83.46
77662;BME280;67292;52.136;5.424;2023-02-11T13:14:31;103689.66;;;11.88;83.61
77662;BME280;67292;52.136;5.424;2023-02-11T13:17:09;103689.66;;;11.91;83.43
77662;BME280;67292;52.136;5.424;2023-02-11T13:19:47;103694.16;;;11.97;83.78
77662;BME280;67292;52.136;5.424;2023-02-11T13:22:19;103679.94;;;11.98;82.76
77662;BME280;67292;52.136;5.424;2023-02-11T13:25:03;103686.19;;;12.00;83.23
77662;BME280;67292;52.136;5.424;2023-02-11T13:30:21;103685.28;;;12.02;83.50
77662;BME280;67292;52.136;5.424;2023-02-11T13:35:36;103679.06;;;12.00;82.83
77662;BME280;67292;52.136;5.424;2023-02-11T13:38:23;103671.03;;;11.97;82.64
77662;BME280;67292;52.136;5.424;2023-02-11T13:41:01;103674.59;;;12.02;82.13
77662;BME280;67292;52.136;5.424;2023-02-11T13:43:31;103670.16;;;11.98;82.70
77662;BME280;67292;52.136;5.424;2023-02-11T13:46:07;103669.22;;;11.93;81.89
77662;BME280;67292;52.136;5.424;2023-02-11T13:48:45;103673.66;;;11.91;83.02
77662;BME280;67292;52.136;5.424;2023-02-11T13:51:16;103672.75;;;11.86;81.69
77662;BME280;67292;52.136;5.424;2023-02-11T13:53:48;103680.78;;;11.88;82.37
77662;BME280;67292;52.136;5.424;2023-02-11T13:58:58;103681.56;;;11.76;82.50
77662;BME280;67292;52.136;5.424;2023-02-11T14:04:32;103678.81;;;11.70;82.51
77662;BME280;67292;52.136;5.424;2023-02-11T14:07:32;103684.16;;;11.67;83.46
77662;BME280;67292;52.136;5.424;2023-02-11T14:16:15;103685.78;;;11.50;82.25
77662;BME280;67292;52.136;5.424;2023-02-11T14:19:01;103683.97;;;11.44;82.79
77662;BME280;67292;52.136;5.424;2023-02-11T14:26:39;103687.44;;;11.34;82.84
77662;BME280;67292;52.136;5.424;2023-02-11T14:35:11;103688.28;;;11.31;83.35
77662;BME280;67292;52.136;5.424;2023-02-11T14:38:02;103686.47;;;11.27;83.33
77662;BME280;67292;52.136;5.424;2023-02-11T14:40:49;103690.91;;;11.27;82.73
77662;BME280;67292;52.136;5.424;2023-02-11T14:43:29;103689.16;;;11.29;83.48
77662;BME280;67292;52.136;5.424;2023-02-11T14:45:58;103691.84;;;11.32;84.08
77662;BME280;67292;52.136;5.424;2023-02-11T14:48:30;103691.88;;;11.33;83.88
77662;BME280;67292;52.136;5.424;2023-02-11T14:51:03;103692.78;;;11.36;84.23
77662;BME280;67292;52.136;5.424;2023-02-11T14:53:33;103692.75;;;11.37;83.45
77662;BME280;67292;52.136;5.424;2023-02-11T14:56:00;103691.00;;;11.34;82.72
77662;BME280;67292;52.136;5.424;2023-02-11T14:58:31;103688.31;;;11.36;83.26
77662;BME280;67292;52.136;5.424;2023-02-11T15:01:04;103692.72;;;11.31;83.89
77662;BME280;67292;52.136;5.424;2023-02-11T15:08:36;103694.41;;;11.21;83.77
77662;BME280;67292;52.136;5.424;2023-02-11T15:11:11;103695.31;;;11.22;83.31
77662;BME280;67292;52.136;5.424;2023-02-11T15:13:38;103700.59;;;11.17;83.71
77662;BME280;67292;52.136;5.424;2023-02-11T15:16:07;103699.66;;;11.12;83.70
77662;BME280;67292;52.136;5.424;2023-02-11T15:18:40;103703.16;;;11.08;83.87